Ault, Minnesota
Current Conditions -  °F | °C
As of 11:54 PM on Tuesday 21 Oct 2014 (Local Time) from KTWM Reporting Station
Clear Clear  
Wind Chill: 39°   Ceiling: Unl
Heat Index: 39°   Visibility: 10mi
Dew Point: 28°   Wind: 3mph
Humidity: 65%   Direction: 50°NE
Pressure: 30.21"   Gusts: NA
Location:  47.3998°N, 91.9141°W
Report Text: KTWM 220454Z AUTO 05003KT 10SM CLR 04/M02 A3021 RMK AO2
Loading
Personal Weather Stations






























Interactive Weather Map New forecast layout! Learn more

10-Day Weather Forecast

Advertisements
Track Severe Weather on mobile